sensor_id;sensor_type;location;lat;lon;timestamp;P1;durP1;ratioP1;P2;durP2;ratioP2
10029;SDS011;5055;52.054;8.524;2023-05-07T00:00:10;0.40;;;0.40;;
10029;SDS011;5055;52.054;8.524;2023-05-07T00:02:41;0.40;;;0.40;;
10029;SDS011;5055;52.054;8.524;2023-05-07T00:05:11;0.40;;;0.40;;
10029;SDS011;5055;52.054;8.524;2023-05-07T00:07:40;0.33;;;0.33;;
10029;SDS011;5055;52.054;8.524;2023-05-07T00:10:09;0.30;;;0.30;;
10029;SDS011;5055;52.054;8.524;2023-05-07T00:12:41;0.30;;;0.30;;
10029;SDS011;5055;52.054;8.524;2023-05-07T00:15:09;0.20;;;0.20;;
10029;SDS011;5055;52.054;8.524;2023-05-07T00:17:39;0.30;;;0.30;;
10029;SDS011;5055;52.054;8.524;2023-05-07T00:20:10;0.30;;;0.30;;
10029;SDS011;5055;52.054;8.524;2023-05-07T00:22:39;0.20;;;0.20;;
10029;SDS011;5055;52.054;8.524;2023-05-07T00:25:08;0.30;;;0.30;;
10029;SDS011;5055;52.054;8.524;2023-05-07T00:27:36;0.30;;;0.30;;
10029;SDS011;5055;52.054;8.524;2023-05-07T00:30:07;0.30;;;0.30;;
10029;SDS011;5055;52.054;8.524;2023-05-07T00:32:36;0.30;;;0.30;;
10029;SDS011;5055;52.054;8.524;2023-05-07T00:35:05;0.30;;;0.30;;
10029;SDS011;5055;52.054;8.524;2023-05-07T00:37:34;0.20;;;0.20;;
10029;SDS011;5055;52.054;8.524;2023-05-07T00:40:03;0.20;;;0.20;;
10029;SDS011;5055;52.054;8.524;2023-05-07T00:42:34;0.30;;;0.30;;
10029;SDS011;5055;52.054;8.524;2023-05-07T00:45:03;0.20;;;0.20;;
10029;SDS011;5055;52.054;8.524;2023-05-07T00:47:33;0.20;;;0.20;;
10029;SDS011;5055;52.054;8.524;2023-05-07T00:50:01;0.20;;;0.20;;
10029;SDS011;5055;52.054;8.524;2023-05-07T00:52:32;0.30;;;0.30;;
10029;SDS011;5055;52.054;8.524;2023-05-07T00:55:00;0.20;;;0.20;;
10029;SDS011;5055;52.054;8.524;2023-05-07T00:57:32;0.20;;;0.20;;
10029;SDS011;5055;52.054;8.524;2023-05-07T01:00:03;0.30;;;0.30;;
10029;SDS011;5055;52.054;8.524;2023-05-07T01:02:36;0.30;;;0.30;;
10029;SDS011;5055;52.054;8.524;2023-05-07T01:05:05;0.30;;;0.30;;
10029;SDS011;5055;52.054;8.524;2023-05-07T01:07:37;0.30;;;0.30;;
10029;SDS011;5055;52.054;8.524;2023-05-07T01:10:07;0.30;;;0.30;;
10029;SDS011;5055;52.054;8.524;2023-05-07T01:12:37;0.40;;;0.40;;
10029;SDS011;5055;52.054;8.524;2023-05-07T01:15:08;0.30;;;0.30;;
10029;SDS011;5055;52.054;8.524;2023-05-07T01:17:39;0.30;;;0.30;;
10029;SDS011;5055;52.054;8.524;2023-05-07T01:20:09;0.30;;;0.30;;
10029;SDS011;5055;52.054;8.524;2023-05-07T01:22:41;0.30;;;0.30;;
10029;SDS011;5055;52.054;8.524;2023-05-07T01:25:11;0.20;;;0.20;;
10029;SDS011;5055;52.054;8.524;2023-05-07T01:27:40;0.30;;;0.30;;
10029;SDS011;5055;52.054;8.524;2023-05-07T01:30:08;0.30;;;0.30;;
10029;SDS011;5055;52.054;8.524;2023-05-07T01:32:40;0.20;;;0.20;;
10029;SDS011;5055;52.054;8.524;2023-05-07T01:35:12;0.30;;;0.30;;
10029;SDS011;5055;52.054;8.524;2023-05-07T01:37:47;0.20;;;0.20;;
10029;SDS011;5055;52.054;8.524;2023-05-07T01:40:16;0.30;;;0.30;;
10029;SDS011;5055;52.054;8.524;2023-05-07T01:42:45;0.20;;;0.20;;
10029;SDS011;5055;52.054;8.524;2023-05-07T01:45:15;0.30;;;0.30;;
10029;SDS011;5055;52.054;8.524;2023-05-07T01:47:43;0.40;;;0.40;;
10029;SDS011;5055;52.054;8.524;2023-05-07T01:50:13;0.30;;;0.30;;
10029;SDS011;5055;52.054;8.524;2023-05-07T01:52:44;0.30;;;0.30;;
10029;SDS011;5055;52.054;8.524;2023-05-07T01:55:14;0.30;;;0.30;;
10029;SDS011;5055;52.054;8.524;2023-05-07T01:57:43;0.33;;;0.33;;
10029;SDS011;5055;52.054;8.524;2023-05-07T02:00:11;0.30;;;0.30;;
10029;SDS011;5055;52.054;8.524;2023-05-07T02:02:40;0.30;;;0.30;;
10029;SDS011;5055;52.054;8.524;2023-05-07T02:05:09;0.30;;;0.30;;
10029;SDS011;5055;52.054;8.524;2023-05-07T02:07:37;0.30;;;0.30;;
10029;SDS011;5055;52.054;8.524;2023-05-07T02:10:06;0.30;;;0.30;;
10029;SDS011;5055;52.054;8.524;2023-05-07T02:12:36;0.30;;;0.30;;
10029;SDS011;5055;52.054;8.524;2023-05-07T02:15:05;0.40;;;0.40;;
10029;SDS011;5055;52.054;8.524;2023-05-07T02:17:34;0.40;;;0.40;;
10029;SDS011;5055;52.054;8.524;2023-05-07T02:20:04;0.30;;;0.30;;
10029;SDS011;5055;52.054;8.524;2023-05-07T02:22:39;0.30;;;0.30;;
10029;SDS011;5055;52.054;8.524;2023-05-07T02:25:08;0.30;;;0.30;;
10029;SDS011;5055;52.054;8.524;2023-05-07T02:27:37;0.30;;;0.30;;
10029;SDS011;5055;52.054;8.524;2023-05-07T02:30:06;0.20;;;0.20;;
10029;SDS011;5055;52.054;8.524;2023-05-07T02:32:35;0.30;;;0.30;;
10029;SDS011;5055;52.054;8.524;2023-05-07T02:35:04;0.30;;;0.30;;
10029;SDS011;5055;52.054;8.524;2023-05-07T02:37:33;0.30;;;0.30;;
10029;SDS011;5055;52.054;8.524;2023-05-07T02:40:02;0.30;;;0.30;;
10029;SDS011;5055;52.054;8.524;2023-05-07T02:42:34;0.30;;;0.30;;
10029;SDS011;5055;52.054;8.524;2023-05-07T02:45:08;0.30;;;0.30;;
10029;SDS011;5055;52.054;8.524;2023-05-07T02:47:37;0.20;;;0.20;;
10029;SDS011;5055;52.054;8.524;2023-05-07T02:50:14;0.20;;;0.20;;
10029;SDS011;5055;52.054;8.524;2023-05-07T02:53:21;0.40;;;0.40;;
10029;SDS011;5055;52.054;8.524;2023-05-07T02:55:52;0.30;;;0.30;;
10029;SDS011;5055;52.054;8.524;2023-05-07T02:58:20;0.30;;;0.30;;
10029;SDS011;5055;52.054;8.524;2023-05-07T03:00:50;0.30;;;0.30;;
10029;SDS011;5055;52.054;8.524;2023-05-07T03:03:19;0.20;;;0.20;;
10029;SDS011;5055;52.054;8.524;2023-05-07T03:05:47;0.30;;;0.30;;
10029;SDS011;5055;52.054;8.524;2023-05-07T03:08:16;0.20;;;0.20;;
10029;SDS011;5055;52.054;8.524;2023-05-07T03:10:44;0.20;;;0.20;;
10029;SDS011;5055;52.054;8.524;2023-05-07T03:13:12;0.30;;;0.30;;
10029;SDS011;5055;52.054;8.524;2023-05-07T03:15:41;0.30;;;0.30;;
10029;SDS011;5055;52.054;8.524;2023-05-07T03:18:10;0.20;;;0.20;;
10029;SDS011;5055;52.054;8.524;2023-05-07T03:20:39;0.30;;;0.30;;
10029;SDS011;5055;52.054;8.524;2023-05-07T03:23:07;0.20;;;0.20;;
10029;SDS011;5055;52.054;8.524;2023-05-07T03:25:36;0.30;;;0.30;;
10029;SDS011;5055;52.054;8.524;2023-05-07T03:28:07;0.30;;;0.30;;
10029;SDS011;5055;52.054;8.524;2023-05-07T03:30:35;0.30;;;0.30;;
10029;SDS011;5055;52.054;8.524;2023-05-07T03:33:03;0.37;;;0.37;;
10029;SDS011;5055;52.054;8.524;2023-05-07T03:35:33;0.40;;;0.40;;
10029;SDS011;5055;52.054;8.524;2023-05-07T03:38:02;0.37;;;0.37;;
10029;SDS011;5055;52.054;8.524;2023-05-07T03:40:30;0.20;;;0.20;;
10029;SDS011;5055;52.054;8.524;2023-05-07T03:42:59;0.30;;;0.30;;
10029;SDS011;5055;52.054;8.524;2023-05-07T03:45:27;0.30;;;0.30;;
10029;SDS011;5055;52.054;8.524;2023-05-07T03:47:56;0.30;;;0.30;;
10029;SDS011;5055;52.054;8.524;2023-05-07T03:50:24;0.30;;;0.30;;
10029;SDS011;5055;52.054;8.524;2023-05-07T03:52:54;0.30;;;0.30;;
10029;SDS011;5055;52.054;8.524;2023-05-07T03:55:22;0.30;;;0.30;;
10029;SDS011;5055;52.054;8.524;2023-05-07T03:57:51;0.20;;;0.20;;
10029;SDS011;5055;52.054;8.524;2023-05-07T04:00:19;0.30;;;0.30;;
10029;SDS011;5055;52.054;8.524;2023-05-07T04:02:48;0.40;;;0.40;;
10029;SDS011;5055;52.054;8.524;2023-05-07T04:05:17;0.30;;;0.30;;
10029;SDS011;5055;52.054;8.524;2023-05-07T04:07:45;0.40;;;0.40;;
10029;SDS011;5055;52.054;8.524;2023-05-07T04:10:15;0.30;;;0.30;;
10029;SDS011;5055;52.054;8.524;2023-05-07T04:12:43;0.40;;;0.40;;
10029;SDS011;5055;52.054;8.524;2023-05-07T04:15:11;0.33;;;0.33;;
10029;SDS011;5055;52.054;8.524;2023-05-07T04:17:40;0.40;;;0.40;;
10029;SDS011;5055;52.054;8.524;2023-05-07T04:20:09;0.40;;;0.40;;
10029;SDS011;5055;52.054;8.524;2023-05-07T04:22:42;0.23;;;0.23;;
10029;SDS011;5055;52.054;8.524;2023-05-07T04:25:10;0.30;;;0.30;;
10029;SDS011;5055;52.054;8.524;2023-05-07T04:27:40;0.20;;;0.20;;
10029;SDS011;5055;52.054;8.524;2023-05-07T04:30:08;0.30;;;0.30;;
10029;SDS011;5055;52.054;8.524;2023-05-07T04:32:38;0.20;;;0.20;;
10029;SDS011;5055;52.054;8.524;2023-05-07T04:35:07;0.40;;;0.40;;
10029;SDS011;5055;52.054;8.524;2023-05-07T04:37:35;0.27;;;0.27;;
10029;SDS011;5055;52.054;8.524;2023-05-07T04:40:04;0.33;;;0.33;;
10029;SDS011;5055;52.054;8.524;2023-05-07T04:42:33;0.30;;;0.30;;
10029;SDS011;5055;52.054;8.524;2023-05-07T04:45:03;0.30;;;0.30;;
10029;SDS011;5055;52.054;8.524;2023-05-07T04:47:32;0.30;;;0.30;;
10029;SDS011;5055;52.054;8.524;2023-05-07T04:50:01;0.40;;;0.40;;
10029;SDS011;5055;52.054;8.524;2023-05-07T04:52:29;0.30;;;0.30;;
10029;SDS011;5055;52.054;8.524;2023-05-07T04:54:58;0.40;;;0.40;;
10029;SDS011;5055;52.054;8.524;2023-05-07T04:57:27;0.30;;;0.30;;
10029;SDS011;5055;52.054;8.524;2023-05-07T04:59:55;0.30;;;0.30;;
10029;SDS011;5055;52.054;8.524;2023-05-07T05:02:24;0.30;;;0.30;;
10029;SDS011;5055;52.054;8.524;2023-05-07T05:04:53;0.33;;;0.33;;
10029;SDS011;5055;52.054;8.524;2023-05-07T05:07:21;0.40;;;0.40;;
10029;SDS011;5055;52.054;8.524;2023-05-07T05:09:49;0.30;;;0.30;;
10029;SDS011;5055;52.054;8.524;2023-05-07T05:12:18;0.40;;;0.40;;
10029;SDS011;5055;52.054;8.524;2023-05-07T05:14:46;0.30;;;0.30;;
10029;SDS011;5055;52.054;8.524;2023-05-07T05:17:14;0.30;;;0.30;;
10029;SDS011;5055;52.054;8.524;2023-05-07T05:19:44;0.30;;;0.30;;
10029;SDS011;5055;52.054;8.524;2023-05-07T05:22:12;0.30;;;0.30;;
10029;SDS011;5055;52.054;8.524;2023-05-07T05:24:40;0.30;;;0.30;;
10029;SDS011;5055;52.054;8.524;2023-05-07T05:27:09;0.40;;;0.40;;
10029;SDS011;5055;52.054;8.524;2023-05-07T05:29:37;0.20;;;0.20;;
10029;SDS011;5055;52.054;8.524;2023-05-07T05:32:05;0.47;;;0.47;;
10029;SDS011;5055;52.054;8.524;2023-05-07T05:34:34;0.40;;;0.40;;
10029;SDS011;5055;52.054;8.524;2023-05-07T05:37:03;0.30;;;0.30;;
10029;SDS011;5055;52.054;8.524;2023-05-07T05:39:32;0.40;;;0.40;;
10029;SDS011;5055;52.054;8.524;2023-05-07T05:42:03;0.30;;;0.30;;
10029;SDS011;5055;52.054;8.524;2023-05-07T05:44:31;0.30;;;0.30;;
10029;SDS011;5055;52.054;8.524;2023-05-07T05:47:00;0.40;;;0.40;;
10029;SDS011;5055;52.054;8.524;2023-05-07T05:49:28;0.30;;;0.30;;
10029;SDS011;5055;52.054;8.524;2023-05-07T05:51:56;0.30;;;0.30;;
10029;SDS011;5055;52.054;8.524;2023-05-07T05:54:26;0.30;;;0.30;;
10029;SDS011;5055;52.054;8.524;2023-05-07T05:56:55;0.33;;;0.33;;
10029;SDS011;5055;52.054;8.524;2023-05-07T05:59:23;0.20;;;0.20;;
10029;SDS011;5055;52.054;8.524;2023-05-07T06:01:52;0.47;;;0.47;;
10029;SDS011;5055;52.054;8.524;2023-05-07T06:04:20;0.40;;;0.40;;
10029;SDS011;5055;52.054;8.524;2023-05-07T06:06:48;0.30;;;0.30;;
10029;SDS011;5055;52.054;8.524;2023-05-07T06:09:17;0.30;;;0.30;;
10029;SDS011;5055;52.054;8.524;2023-05-07T06:11:47;0.30;;;0.30;;
10029;SDS011;5055;52.054;8.524;2023-05-07T06:14:15;0.30;;;0.30;;
10029;SDS011;5055;52.054;8.524;2023-05-07T06:16:43;0.30;;;0.30;;
10029;SDS011;5055;52.054;8.524;2023-05-07T06:19:12;0.30;;;0.30;;
10029;SDS011;5055;52.054;8.524;2023-05-07T06:21:40;0.30;;;0.30;;
10029;SDS011;5055;52.054;8.524;2023-05-07T06:24:09;0.20;;;0.20;;
10029;SDS011;5055;52.054;8.524;2023-05-07T06:26:37;0.30;;;0.30;;
10029;SDS011;5055;52.054;8.524;2023-05-07T06:29:07;0.30;;;0.30;;
10029;SDS011;5055;52.054;8.524;2023-05-07T06:31:36;0.30;;;0.30;;
10029;SDS011;5055;52.054;8.524;2023-05-07T06:34:04;0.20;;;0.20;;
10029;SDS011;5055;52.054;8.524;2023-05-07T06:36:33;0.30;;;0.30;;
10029;SDS011;5055;52.054;8.524;2023-05-07T06:39:01;0.30;;;0.30;;
10029;SDS011;5055;52.054;8.524;2023-05-07T06:41:30;0.30;;;0.30;;
10029;SDS011;5055;52.054;8.524;2023-05-07T06:43:58;0.20;;;0.20;;
10029;SDS011;5055;52.054;8.524;2023-05-07T06:46:28;0.20;;;0.20;;
10029;SDS011;5055;52.054;8.524;2023-05-07T06:48:57;0.30;;;0.30;;
10029;SDS011;5055;52.054;8.524;2023-05-07T06:51:25;0.20;;;0.20;;
10029;SDS011;5055;52.054;8.524;2023-05-07T06:53:53;0.20;;;0.20;;
10029;SDS011;5055;52.054;8.524;2023-05-07T06:56:22;0.40;;;0.40;;
10029;SDS011;5055;52.054;8.524;2023-05-07T06:58:50;0.20;;;0.20;;
10029;SDS011;5055;52.054;8.524;2023-05-07T07:01:19;0.20;;;0.20;;
10029;SDS011;5055;52.054;8.524;2023-05-07T07:03:48;0.30;;;0.30;;
10029;SDS011;5055;52.054;8.524;2023-05-07T07:06:17;0.30;;;0.30;;
10029;SDS011;5055;52.054;8.524;2023-05-07T07:08:46;0.20;;;0.20;;
10029;SDS011;5055;52.054;8.524;2023-05-07T07:11:14;0.27;;;0.27;;
10029;SDS011;5055;52.054;8.524;2023-05-07T07:13:43;0.20;;;0.20;;
10029;SDS011;5055;52.054;8.524;2023-05-07T07:16:11;0.30;;;0.30;;
10029;SDS011;5055;52.054;8.524;2023-05-07T07:18:39;0.20;;;0.20;;
10029;SDS011;5055;52.054;8.524;2023-05-07T07:21:09;0.20;;;0.20;;
10029;SDS011;5055;52.054;8.524;2023-05-07T07:23:37;0.30;;;0.30;;
10029;SDS011;5055;52.054;8.524;2023-05-07T07:26:06;0.30;;;0.30;;
10029;SDS011;5055;52.054;8.524;2023-05-07T07:28:35;0.20;;;0.20;;
10029;SDS011;5055;52.054;8.524;2023-05-07T07:31:11;0.20;;;0.20;;
10029;SDS011;5055;52.054;8.524;2023-05-07T07:33:40;0.20;;;0.20;;
10029;SDS011;5055;52.054;8.524;2023-05-07T07:36:10;0.30;;;0.30;;
10029;SDS011;5055;52.054;8.524;2023-05-07T07:38:38;0.20;;;0.20;;
10029;SDS011;5055;52.054;8.524;2023-05-07T07:41:07;0.20;;;0.20;;
10029;SDS011;5055;52.054;8.524;2023-05-07T07:43:35;0.20;;;0.20;;
10029;SDS011;5055;52.054;8.524;2023-05-07T07:46:04;0.20;;;0.20;;
10029;SDS011;5055;52.054;8.524;2023-05-07T07:48:32;0.20;;;0.20;;
10029;SDS011;5055;52.054;8.524;2023-05-07T07:51:01;0.30;;;0.30;;
10029;SDS011;5055;52.054;8.524;2023-05-07T07:53:31;0.30;;;0.30;;
10029;SDS011;5055;52.054;8.524;2023-05-07T07:55:59;0.20;;;0.20;;
10029;SDS011;5055;52.054;8.524;2023-05-07T07:58:31;0.30;;;0.30;;
10029;SDS011;5055;52.054;8.524;2023-05-07T08:00:59;0.20;;;0.20;;
10029;SDS011;5055;52.054;8.524;2023-05-07T08:03:27;0.20;;;0.20;;
10029;SDS011;5055;52.054;8.524;2023-05-07T08:05:59;0.30;;;0.30;;
10029;SDS011;5055;52.054;8.524;2023-05-07T08:08:27;0.20;;;0.20;;
10029;SDS011;5055;52.054;8.524;2023-05-07T08:10:57;0.20;;;0.20;;
10029;SDS011;5055;52.054;8.524;2023-05-07T08:13:25;0.20;;;0.20;;
10029;SDS011;5055;52.054;8.524;2023-05-07T08:15:54;0.30;;;0.30;;
10029;SDS011;5055;52.054;8.524;2023-05-07T08:18:22;0.20;;;0.20;;
10029;SDS011;5055;52.054;8.524;2023-05-07T08:20:51;0.20;;;0.20;;
10029;SDS011;5055;52.054;8.524;2023-05-07T08:23:20;0.20;;;0.20;;
10029;SDS011;5055;52.054;8.524;2023-05-07T08:25:48;0.20;;;0.20;;
10029;SDS011;5055;52.054;8.524;2023-05-07T08:28:19;0.20;;;0.20;;
10029;SDS011;5055;52.054;8.524;2023-05-07T08:30:47;0.20;;;0.20;;
10029;SDS011;5055;52.054;8.524;2023-05-07T08:33:16;0.13;;;0.13;;
10029;SDS011;5055;52.054;8.524;2023-05-07T08:35:45;0.30;;;0.30;;
10029;SDS011;5055;52.054;8.524;2023-05-07T08:38:13;0.20;;;0.20;;
10029;SDS011;5055;52.054;8.524;2023-05-07T08:40:41;0.20;;;0.20;;
10029;SDS011;5055;52.054;8.524;2023-05-07T08:43:10;0.20;;;0.20;;
10029;SDS011;5055;52.054;8.524;2023-05-07T08:45:42;0.20;;;0.20;;
10029;SDS011;5055;52.054;8.524;2023-05-07T08:48:19;0.20;;;0.20;;
10029;SDS011;5055;52.054;8.524;2023-05-07T08:50:49;0.20;;;0.20;;
10029;SDS011;5055;52.054;8.524;2023-05-07T08:53:18;0.20;;;0.20;;
10029;SDS011;5055;52.054;8.524;2023-05-07T08:55:48;0.20;;;0.20;;
10029;SDS011;5055;52.054;8.524;2023-05-07T08:58:17;0.20;;;0.20;;
10029;SDS011;5055;52.054;8.524;2023-05-07T09:00:47;0.20;;;0.20;;
10029;SDS011;5055;52.054;8.524;2023-05-07T09:03:16;0.30;;;0.30;;
10029;SDS011;5055;52.054;8.524;2023-05-07T09:05:45;0.20;;;0.20;;
10029;SDS011;5055;52.054;8.524;2023-05-07T09:08:14;0.20;;;0.20;;
10029;SDS011;5055;52.054;8.524;2023-05-07T09:10:43;0.17;;;0.17;;
10029;SDS011;5055;52.054;8.524;2023-05-07T09:13:12;0.20;;;0.20;;
10029;SDS011;5055;52.054;8.524;2023-05-07T09:15:41;0.20;;;0.20;;
10029;SDS011;5055;52.054;8.524;2023-05-07T09:18:11;0.20;;;0.20;;
10029;SDS011;5055;52.054;8.524;2023-05-07T09:20:42;0.20;;;0.20;;
10029;SDS011;5055;52.054;8.524;2023-05-07T09:23:10;0.20;;;0.20;;
10029;SDS011;5055;52.054;8.524;2023-05-07T09:25:39;0.20;;;0.20;;
10029;SDS011;5055;52.054;8.524;2023-05-07T09:28:07;0.20;;;0.20;;
10029;SDS011;5055;52.054;8.524;2023-05-07T09:30:37;0.17;;;0.17;;
10029;SDS011;5055;52.054;8.524;2023-05-07T09:33:05;0.20;;;0.20;;
10029;SDS011;5055;52.054;8.524;2023-05-07T09:35:35;0.17;;;0.17;;
10029;SDS011;5055;52.054;8.524;2023-05-07T09:38:05;0.20;;;0.20;;
10029;SDS011;5055;52.054;8.524;2023-05-07T09:40:35;0.20;;;0.20;;
10029;SDS011;5055;52.054;8.524;2023-05-07T09:43:20;0.20;;;0.20;;
10029;SDS011;5055;52.054;8.524;2023-05-07T09:46:15;0.20;;;0.20;;
10029;SDS011;5055;52.054;8.524;2023-05-07T09:48:46;0.20;;;0.20;;
10029;SDS011;5055;52.054;8.524;2023-05-07T09:51:21;0.20;;;0.20;;
10029;SDS011;5055;52.054;8.524;2023-05-07T09:53:56;0.20;;;0.20;;
10029;SDS011;5055;52.054;8.524;2023-05-07T09:56:30;0.20;;;0.20;;
10029;SDS011;5055;52.054;8.524;2023-05-07T09:58:59;0.20;;;0.20;;
10029;SDS011;5055;52.054;8.524;2023-05-07T10:01:29;0.20;;;0.20;;
10029;SDS011;5055;52.054;8.524;2023-05-07T10:04:01;0.23;;;0.23;;
10029;SDS011;5055;52.054;8.524;2023-05-07T10:06:33;0.20;;;0.20;;
10029;SDS011;5055;52.054;8.524;2023-05-07T10:09:03;0.20;;;0.20;;
10029;SDS011;5055;52.054;8.524;2023-05-07T10:11:33;0.20;;;0.20;;
10029;SDS011;5055;52.054;8.524;2023-05-07T10:14:01;0.20;;;0.20;;
10029;SDS011;5055;52.054;8.524;2023-05-07T10:16:32;0.20;;;0.20;;
10029;SDS011;5055;52.054;8.524;2023-05-07T10:19:03;0.20;;;0.20;;
10029;SDS011;5055;52.054;8.524;2023-05-07T10:21:34;0.20;;;0.20;;
10029;SDS011;5055;52.054;8.524;2023-05-07T10:24:05;0.20;;;0.20;;
10029;SDS011;5055;52.054;8.524;2023-05-07T10:26:40;0.20;;;0.20;;
10029;SDS011;5055;52.054;8.524;2023-05-07T10:29:12;0.20;;;0.20;;
10029;SDS011;5055;52.054;8.524;2023-05-07T10:31:49;0.20;;;0.20;;
10029;SDS011;5055;52.054;8.524;2023-05-07T10:34:24;0.20;;;0.20;;
10029;SDS011;5055;52.054;8.524;2023-05-07T10:36:58;0.10;;;0.10;;
10029;SDS011;5055;52.054;8.524;2023-05-07T10:39:27;0.20;;;0.20;;
10029;SDS011;5055;52.054;8.524;2023-05-07T10:41:56;0.10;;;0.10;;
10029;SDS011;5055;52.054;8.524;2023-05-07T10:44:25;0.20;;;0.20;;
10029;SDS011;5055;52.054;8.524;2023-05-07T10:47:07;0.20;;;0.20;;
10029;SDS011;5055;52.054;8.524;2023-05-07T10:49:37;0.20;;;0.20;;
10029;SDS011;5055;52.054;8.524;2023-05-07T10:52:41;0.20;;;0.20;;
10029;SDS011;5055;52.054;8.524;2023-05-07T10:55:19;0.20;;;0.20;;
10029;SDS011;5055;52.054;8.524;2023-05-07T10:57:51;0.10;;;0.10;;
10029;SDS011;5055;52.054;8.524;2023-05-07T11:03:10;0.10;;;0.10;;
10029;SDS011;5055;52.054;8.524;2023-05-07T11:05:39;0.20;;;0.20;;
10029;SDS011;5055;52.054;8.524;2023-05-07T11:08:09;0.20;;;0.20;;
10029;SDS011;5055;52.054;8.524;2023-05-07T11:10:50;0.20;;;0.20;;
10029;SDS011;5055;52.054;8.524;2023-05-07T11:16:18;0.20;;;0.20;;
10029;SDS011;5055;52.054;8.524;2023-05-07T11:18:47;0.20;;;0.20;;
10029;SDS011;5055;52.054;8.524;2023-05-07T11:21:32;0.20;;;0.20;;
10029;SDS011;5055;52.054;8.524;2023-05-07T11:24:03;0.10;;;0.10;;
10029;SDS011;5055;52.054;8.524;2023-05-07T11:29:17;0.20;;;0.20;;
10029;SDS011;5055;52.054;8.524;2023-05-07T11:31:49;0.10;;;0.10;;
10029;SDS011;5055;52.054;8.524;2023-05-07T11:34:22;0.17;;;0.17;;
10029;SDS011;5055;52.054;8.524;2023-05-07T11:36:51;0.20;;;0.20;;
10029;SDS011;5055;52.054;8.524;2023-05-07T11:39:25;0.10;;;0.10;;
10029;SDS011;5055;52.054;8.524;2023-05-07T11:41:55;0.20;;;0.20;;
10029;SDS011;5055;52.054;8.524;2023-05-07T11:44:23;0.20;;;0.20;;
10029;SDS011;5055;52.054;8.524;2023-05-07T11:46:52;0.10;;;0.10;;
10029;SDS011;5055;52.054;8.524;2023-05-07T11:49:20;0.10;;;0.10;;
10029;SDS011;5055;52.054;8.524;2023-05-07T11:51:52;0.20;;;0.20;;
10029;SDS011;5055;52.054;8.524;2023-05-07T11:54:21;0.17;;;0.17;;
10029;SDS011;5055;52.054;8.524;2023-05-07T11:56:50;0.20;;;0.20;;
10029;SDS011;5055;52.054;8.524;2023-05-07T11:59:19;0.20;;;0.20;;
10029;SDS011;5055;52.054;8.524;2023-05-07T12:01:47;0.10;;;0.10;;
10029;SDS011;5055;52.054;8.524;2023-05-07T12:04:19;0.20;;;0.20;;
10029;SDS011;5055;52.054;8.524;2023-05-07T12:06:48;0.20;;;0.20;;
10029;SDS011;5055;52.054;8.524;2023-05-07T12:09:22;0.20;;;0.20;;
10029;SDS011;5055;52.054;8.524;2023-05-07T12:11:53;0.10;;;0.10;;
10029;SDS011;5055;52.054;8.524;2023-05-07T12:14:26;0.20;;;0.20;;
10029;SDS011;5055;52.054;8.524;2023-05-07T12:16:55;0.10;;;0.10;;
10029;SDS011;5055;52.054;8.524;2023-05-07T12:19:24;0.10;;;0.10;;
10029;SDS011;5055;52.054;8.524;2023-05-07T12:21:53;0.20;;;0.20;;
10029;SDS011;5055;52.054;8.524;2023-05-07T12:24:22;0.20;;;0.20;;
10029;SDS011;5055;52.054;8.524;2023-05-07T12:26:52;0.10;;;0.10;;
10029;SDS011;5055;52.054;8.524;2023-05-07T12:29:21;0.20;;;0.20;;
10029;SDS011;5055;52.054;8.524;2023-05-07T12:31:50;0.20;;;0.20;;
10029;SDS011;5055;52.054;8.524;2023-05-07T12:34:19;0.10;;;0.10;;
10029;SDS011;5055;52.054;8.524;2023-05-07T12:36:50;0.10;;;0.10;;
10029;SDS011;5055;52.054;8.524;2023-05-07T12:39:21;0.10;;;0.10;;
10029;SDS011;5055;52.054;8.524;2023-05-07T12:41:55;0.20;;;0.20;;
10029;SDS011;5055;52.054;8.524;2023-05-07T12:44:26;0.20;;;0.20;;
10029;SDS011;5055;52.054;8.524;2023-05-07T12:47:01;0.10;;;0.10;;
10029;SDS011;5055;52.054;8.524;2023-05-07T12:49:30;0.20;;;0.20;;
10029;SDS011;5055;52.054;8.524;2023-05-07T12:52:05;0.20;;;0.20;;
10029;SDS011;5055;52.054;8.524;2023-05-07T12:54:35;0.20;;;0.20;;
10029;SDS011;5055;52.054;8.524;2023-05-07T12:57:08;0.20;;;0.20;;
10029;SDS011;5055;52.054;8.524;2023-05-07T12:59:38;0.20;;;0.20;;
10029;SDS011;5055;52.054;8.524;2023-05-07T13:02:08;0.20;;;0.20;;
10029;SDS011;5055;52.054;8.524;2023-05-07T13:04:37;0.20;;;0.20;;
10029;SDS011;5055;52.054;8.524;2023-05-07T13:07:07;0.10;;;0.10;;
10029;SDS011;5055;52.054;8.524;2023-05-07T13:09:37;0.20;;;0.20;;
10029;SDS011;5055;52.054;8.524;2023-05-07T13:12:07;0.10;;;0.10;;
10029;SDS011;5055;52.054;8.524;2023-05-07T13:14:37;0.20;;;0.20;;
10029;SDS011;5055;52.054;8.524;2023-05-07T13:17:06;0.20;;;0.20;;
10029;SDS011;5055;52.054;8.524;2023-05-07T13:19:36;0.10;;;0.10;;
10029;SDS011;5055;52.054;8.524;2023-05-07T13:22:05;0.20;;;0.20;;
10029;SDS011;5055;52.054;8.524;2023-05-07T13:24:33;0.20;;;0.20;;
10029;SDS011;5055;52.054;8.524;2023-05-07T13:27:02;0.20;;;0.20;;
10029;SDS011;5055;52.054;8.524;2023-05-07T13:29:32;0.20;;;0.20;;
10029;SDS011;5055;52.054;8.524;2023-05-07T13:32:01;0.20;;;0.20;;
10029;SDS011;5055;52.054;8.524;2023-05-07T13:34:30;0.10;;;0.10;;
10029;SDS011;5055;52.054;8.524;2023-05-07T13:36:58;0.10;;;0.10;;
10029;SDS011;5055;52.054;8.524;2023-05-07T13:39:27;0.10;;;0.10;;
10029;SDS011;5055;52.054;8.524;2023-05-07T13:41:56;0.10;;;0.10;;
10029;SDS011;5055;52.054;8.524;2023-05-07T13:44:25;0.20;;;0.20;;
10029;SDS011;5055;52.054;8.524;2023-05-07T13:46:56;0.17;;;0.17;;
10029;SDS011;5055;52.054;8.524;2023-05-07T13:49:25;0.20;;;0.20;;
10029;SDS011;5055;52.054;8.524;2023-05-07T13:51:53;0.10;;;0.10;;
10029;SDS011;5055;52.054;8.524;2023-05-07T13:54:22;0.10;;;0.10;;
10029;SDS011;5055;52.054;8.524;2023-05-07T13:56:51;0.20;;;0.20;;
10029;SDS011;5055;52.054;8.524;2023-05-07T13:59:19;0.10;;;0.10;;
10029;SDS011;5055;52.054;8.524;2023-05-07T14:01:48;0.20;;;0.20;;
10029;SDS011;5055;52.054;8.524;2023-05-07T14:04:18;0.20;;;0.20;;
10029;SDS011;5055;52.054;8.524;2023-05-07T14:06:46;0.10;;;0.10;;
10029;SDS011;5055;52.054;8.524;2023-05-07T14:09:19;0.20;;;0.20;;
10029;SDS011;5055;52.054;8.524;2023-05-07T14:11:51;0.10;;;0.10;;
10029;SDS011;5055;52.054;8.524;2023-05-07T14:14:19;0.10;;;0.10;;
10029;SDS011;5055;52.054;8.524;2023-05-07T14:16:48;0.13;;;0.13;;
10029;SDS011;5055;52.054;8.524;2023-05-07T14:19:18;0.13;;;0.13;;
10029;SDS011;5055;52.054;8.524;2023-05-07T14:21:46;0.20;;;0.20;;
10029;SDS011;5055;52.054;8.524;2023-05-07T14:24:15;0.20;;;0.20;;
10029;SDS011;5055;52.054;8.524;2023-05-07T14:27:00;0.10;;;0.10;;
10029;SDS011;5055;52.054;8.524;2023-05-07T14:29:28;0.10;;;0.10;;
10029;SDS011;5055;52.054;8.524;2023-05-07T14:31:57;0.20;;;0.20;;
10029;SDS011;5055;52.054;8.524;2023-05-07T14:34:27;0.20;;;0.20;;
10029;SDS011;5055;52.054;8.524;2023-05-07T14:36:55;0.10;;;0.10;;
10029;SDS011;5055;52.054;8.524;2023-05-07T14:39:24;0.10;;;0.10;;
10029;SDS011;5055;52.054;8.524;2023-05-07T14:41:52;0.10;;;0.10;;
10029;SDS011;5055;52.054;8.524;2023-05-07T14:44:22;0.10;;;0.10;;
10029;SDS011;5055;52.054;8.524;2023-05-07T14:46:51;0.17;;;0.17;;
10029;SDS011;5055;52.054;8.524;2023-05-07T14:49:20;0.10;;;0.10;;
10029;SDS011;5055;52.054;8.524;2023-05-07T14:51:49;0.10;;;0.10;;
10029;SDS011;5055;52.054;8.524;2023-05-07T14:54:18;0.10;;;0.10;;
10029;SDS011;5055;52.054;8.524;2023-05-07T14:56:46;0.10;;;0.10;;
10029;SDS011;5055;52.054;8.524;2023-05-07T14:59:14;0.20;;;0.20;;
10029;SDS011;5055;52.054;8.524;2023-05-07T15:01:45;0.10;;;0.10;;
10029;SDS011;5055;52.054;8.524;2023-05-07T15:04:14;0.10;;;0.10;;
10029;SDS011;5055;52.054;8.524;2023-05-07T15:06:42;0.20;;;0.20;;
10029;SDS011;5055;52.054;8.524;2023-05-07T15:09:13;0.20;;;0.20;;
10029;SDS011;5055;52.054;8.524;2023-05-07T15:11:41;0.20;;;0.20;;
10029;SDS011;5055;52.054;8.524;2023-05-07T15:14:09;0.10;;;0.10;;
10029;SDS011;5055;52.054;8.524;2023-05-07T15:16:38;0.20;;;0.20;;
10029;SDS011;5055;52.054;8.524;2023-05-07T15:19:06;0.10;;;0.10;;
10029;SDS011;5055;52.054;8.524;2023-05-07T15:21:34;0.20;;;0.20;;
10029;SDS011;5055;52.054;8.524;2023-05-07T15:24:03;0.20;;;0.20;;